Time;durP1;ratioP1;P1;durP2;ratioP2;P2;SDS_P1;SDS_P2;PMS_P1;PMS_P2;Temp;Humidity;BMP_temperature;BMP_pressure;BME280_temperature;BME280_humidity;BME280_pressure;Samples;Min_cycle;Max_cycle;Signal;HPM_P1;HPM_P2
2022/04/30 00:00:19;;;;;;;;;3.25;3.25;;;;;;;;5226365;28;8829;-70
2022/04/30 00:02:49;;;;;;;;;4.20;4.20;;;;;;;;5205326;28;11459;-70
2022/04/30 00:05:20;;;;;;;;;2.75;2.25;;;;;;;;5218573;28;8878;-69
2022/04/30 00:08:10;;;;;;;;;7.00;7.00;;;;;;;;5226852;28;12277;-69
2022/04/30 00:10:42;;;;;;;;;10.80;10.40;;;;;;;;5226496;28;8778;-68
2022/04/30 00:13:12;;;;;;;;;11.00;11.00;;;;;;;;5226124;28;8813;-68
2022/04/30 00:16:02;;;;;;;;;12.40;12.40;;;;;;;;5195197;28;8792;-68
2022/04/30 00:18:32;;;;;;;;;5.40;5.40;;;;;;;;5205545;28;9534;-69
2022/04/30 00:21:05;;;;;;;;;1.50;1.50;;;;;;;;5206867;28;8855;-68
2022/04/30 00:23:36;;;;;;;;;5.00;5.00;;;;;;;;5205233;28;12212;-69
2022/04/30 00:26:07;;;;;;;;;3.80;3.80;;;;;;;;5205391;28;8792;-69
2022/04/30 00:28:38;;;;;;;;;8.50;8.50;;;;;;;;5224775;28;8829;-69
2022/04/30 00:31:09;;;;;;;;;6.00;6.00;;;;;;;;5225733;28;11482;-69
2022/04/30 00:33:40;;;;;;;;;7.50;7.50;;;;;;;;5210930;28;10259;-70
2022/04/30 00:36:11;;;;;;;;;6.60;6.60;;;;;;;;5205360;28;11465;-70
2022/04/30 00:38:42;;;;;;;;;6.50;6.50;;;;;;;;5206461;28;8812;-70
2022/04/30 00:41:14;;;;;;;;;6.00;6.00;;;;;;;;5206172;28;11450;-71
2022/04/30 00:44:04;;;;;;;;;7.40;7.40;;;;;;;;5206255;28;9894;-71
2022/04/30 00:46:35;;;;;;;;;5.00;5.00;;;;;;;;5209901;28;8817;-70
2022/04/30 00:49:07;;;;;;;;;5.00;5.00;;;;;;;;5208798;28;8798;-70
2022/04/30 00:51:39;;;;;;;;;11.40;10.60;;;;;;;;5197822;28;8832;-71
2022/04/30 00:54:11;;;;;;;;;19.00;19.00;;;;;;;;5188193;28;8869;-71
2022/04/30 00:56:51;;;;;;;;;19.20;19.20;;;;;;;;5191373;28;8793;-71
2022/04/30 00:59:23;;;;;;;;;15.80;15.60;;;;;;;;5226684;28;8874;-71
2022/04/30 01:01:59;;;;;;;;;15.40;15.40;;;;;;;;5225122;28;8826;-71
2022/04/30 01:04:33;;;;;;;;;9.80;9.80;;;;;;;;5224971;28;8802;-70
2022/04/30 01:07:08;;;;;;;;;13.80;13.80;;;;;;;;5225162;28;9549;-69
2022/04/30 01:09:42;;;;;;;;;14.20;12.80;;;;;;;;5187399;28;8812;-69
2022/04/30 01:12:14;;;;;;;;;17.00;17.00;;;;;;;;5208043;28;9018;-69
2022/04/30 01:14:46;;;;;;;;;15.00;15.00;;;;;;;;5224912;28;8796;-69
2022/04/30 01:17:38;;;;;;;;;11.80;11.80;;;;;;;;5225952;28;8859;-69
2022/04/30 01:20:10;;;;;;;;;11.00;11.00;;;;;;;;5208626;28;8848;-70
2022/04/30 01:22:53;;;;;;;;;11.60;11.00;;;;;;;;5224571;28;8793;-70
2022/04/30 01:25:24;;;;;;;;;7.00;7.00;;;;;;;;5219661;28;8852;-70
2022/04/30 01:27:56;;;;;;;;;7.60;7.60;;;;;;;;5206536;28;9553;-70
2022/04/30 01:30:28;;;;;;;;;7.00;7.00;;;;;;;;5224857;28;8870;-70
2022/04/30 01:38:40;;;;;;;;;7.60;7.60;;;;;;;;5225198;28;8834;-70
2022/04/30 01:41:11;;;;;;;;;12.00;11.60;;;;;;;;5224583;28;8856;-70
2022/04/30 01:43:43;;;;;;;;;10.25;9.50;;;;;;;;5223954;28;8800;-70
2022/04/30 01:46:14;;;;;;;;;8.40;8.40;;;;;;;;5203061;28;8792;-70
2022/04/30 01:48:45;;;;;;;;;10.25;10.25;;;;;;;;5187726;28;8800;-69
2022/04/30 01:51:17;;;;;;;;;12.00;12.00;;;;;;;;5205471;28;11434;-70
2022/04/30 01:53:48;;;;;;;;;11.20;11.20;;;;;;;;5204073;28;8809;-70
2022/04/30 01:56:19;;;;;;;;;14.25;12.75;;;;;;;;5204427;28;8776;-70
2022/04/30 01:59:04;;;;;;;;;7.60;7.60;;;;;;;;5204018;28;8805;-70
2022/04/30 02:01:37;;;;;;;;;10.20;10.00;;;;;;;;5187988;28;8850;-69
2022/04/30 02:04:27;;;;;;;;;10.40;9.40;;;;;;;;5205609;28;8789;-70
2022/04/30 02:06:59;;;;;;;;;10.40;10.40;;;;;;;;5224281;28;8902;-70
2022/04/30 02:09:31;;;;;;;;;11.00;11.00;;;;;;;;5222791;28;8770;-72
2022/04/30 02:12:02;;;;;;;;;8.40;8.40;;;;;;;;5187478;28;8807;-71
2022/04/30 02:14:35;;;;;;;;;7.00;7.00;;;;;;;;5203717;28;8846;-71
2022/04/30 02:17:07;;;;;;;;;5.80;5.80;;;;;;;;5189380;28;8931;-71
2022/04/30 02:22:30;;;;;;;;;7.20;7.20;;;;;;;;5208145;28;8784;-71
2022/04/30 02:25:02;;;;;;;;;11.60;11.40;;;;;;;;5203569;28;8808;-70
2022/04/30 02:27:54;;;;;;;;;10.60;10.40;;;;;;;;5224029;28;8788;-69
2022/04/30 02:30:26;;;;;;;;;62.60;51.20;;;;;;;;5226216;28;8817;-68
2022/04/30 02:33:01;;;;;;;;;15.40;15.40;;;;;;;;5228284;28;8904;-69
2022/04/30 02:35:34;;;;;;;;;12.60;12.60;;;;;;;;5229317;28;9492;-68
2022/04/30 02:38:08;;;;;;;;;10.40;9.20;;;;;;;;5211501;28;9499;-68
2022/04/30 02:40:40;;;;;;;;;4.80;4.80;;;;;;;;5183102;28;8840;-70
2022/04/30 02:43:12;;;;;;;;;6.20;3.60;;;;;;;;5214445;28;8919;-69
2022/04/30 02:45:43;;;;;;;;;6.80;6.80;;;;;;;;5225871;28;8800;-69
2022/04/30 02:48:15;;;;;;;;;3.00;3.00;;;;;;;;5227314;28;8786;-69
2022/04/30 02:50:46;;;;;;;;;6.00;6.00;;;;;;;;5226194;28;8797;-69
2022/04/30 02:53:18;;;;;;;;;5.00;5.00;;;;;;;;5209579;28;8790;-68
2022/04/30 02:55:49;;;;;;;;;6.60;6.60;;;;;;;;5226197;28;9559;-69
2022/04/30 03:01:10;;;;;;;;;6.40;6.40;;;;;;;;5223962;28;8820;-67
2022/04/30 03:04:02;;;;;;;;;6.20;6.20;;;;;;;;5223806;28;8810;-68
2022/04/30 03:06:35;;;;;;;;;5.00;5.00;;;;;;;;5192828;28;8797;-68
2022/04/30 03:09:06;;;;;;;;;5.00;5.00;;;;;;;;5225272;28;8832;-69
2022/04/30 03:11:37;;;;;;;;;6.80;6.80;;;;;;;;5223627;28;8839;-68
2022/04/30 03:14:08;;;;;;;;;5.40;5.40;;;;;;;;5209433;28;8883;-68
2022/04/30 03:22:19;;;;;;;;;13.40;12.80;;;;;;;;5241186;28;8957;-68
2022/04/30 03:25:08;;;;;;;;;7.80;7.80;;;;;;;;5247107;28;8847;-68
2022/04/30 03:27:39;;;;;;;;;11.20;10.20;;;;;;;;5231040;28;9510;-69
2022/04/30 03:30:11;;;;;;;;;8.25;8.25;;;;;;;;5247183;28;8818;-68
2022/04/30 03:32:42;;;;;;;;;5.20;5.20;;;;;;;;5247645;28;10378;-68
2022/04/30 03:35:32;;;;;;;;;12.40;12.40;;;;;;;;5232488;28;9508;-67
2022/04/30 03:38:03;;;;;;;;;8.75;8.75;;;;;;;;5225559;28;8793;-68
2022/04/30 03:40:35;;;;;;;;;7.80;7.80;;;;;;;;5226341;28;10625;-68
2022/04/30 03:43:06;;;;;;;;;10.60;9.60;;;;;;;;5210479;28;8816;-67
2022/04/30 03:45:38;;;;;;;;;9.80;9.80;;;;;;;;5226729;28;8782;-67
2022/04/30 03:48:09;;;;;;;;;9.00;8.50;;;;;;;;5226703;28;8824;-68
2022/04/30 03:50:42;;;;;;;;;8.00;8.00;;;;;;;;5226673;28;11595;-67
2022/04/30 03:53:13;;;;;;;;;13.00;12.60;;;;;;;;5226363;28;8806;-68
2022/04/30 03:55:44;;;;;;;;;9.00;9.00;;;;;;;;5226434;28;8806;-68
2022/04/30 03:58:15;;;;;;;;;14.00;14.00;;;;;;;;5225742;28;9276;-68
2022/04/30 04:00:46;;;;;;;;;11.75;11.75;;;;;;;;5227533;28;9579;-68
2022/04/30 04:03:17;;;;;;;;;13.00;13.00;;;;;;;;5225879;28;11457;-71
2022/04/30 04:05:49;;;;;;;;;12.00;12.00;;;;;;;;5220681;28;8851;-69
2022/04/30 04:08:38;;;;;;;;;10.60;10.60;;;;;;;;5205787;28;8777;-70
2022/04/30 04:11:13;;;;;;;;;13.00;13.00;;;;;;;;5231731;28;8888;-68
2022/04/30 04:19:42;;;;;;;;;11.00;11.00;;;;;;;;5206684;28;8942;-69
2022/04/30 04:22:13;;;;;;;;;13.80;13.80;;;;;;;;5238279;28;8799;-68
2022/04/30 04:27:34;;;;;;;;;7.00;7.00;;;;;;;;5205558;28;8830;-68
2022/04/30 04:30:06;;;;;;;;;7.80;7.80;;;;;;;;5189440;28;8816;-68
2022/04/30 04:32:37;;;;;;;;;3.60;3.60;;;;;;;;5188360;28;8858;-67
2022/04/30 04:35:08;;;;;;;;;5.25;5.25;;;;;;;;5218327;28;8939;-67
2022/04/30 04:37:46;;;;;;;;;5.80;5.80;;;;;;;;5209825;28;10908;-67
2022/04/30 04:40:18;;;;;;;;;5.20;5.20;;;;;;;;5225054;28;9536;-67
2022/04/30 04:42:49;;;;;;;;;7.00;7.00;;;;;;;;5208621;28;8833;-68
2022/04/30 04:45:22;;;;;;;;;6.80;6.80;;;;;;;;5225044;28;8828;-68
2022/04/30 04:47:54;;;;;;;;;8.00;7.80;;;;;;;;5209251;28;8790;-68
2022/04/30 04:50:25;;;;;;;;;11.40;11.40;;;;;;;;5215170;28;8812;-69
2022/04/30 04:52:55;;;;;;;;;10.40;10.40;;;;;;;;5188368;28;8800;-67
2022/04/30 04:55:27;;;;;;;;;13.00;13.00;;;;;;;;5204303;28;8823;-68
2022/04/30 04:57:58;;;;;;;;;13.80;13.60;;;;;;;;5204293;28;8805;-68
2022/04/30 05:00:29;;;;;;;;;12.80;12.40;;;;;;;;5205725;28;8824;-68
2022/04/30 05:03:01;;;;;;;;;15.80;15.80;;;;;;;;5207887;28;8832;-69
2022/04/30 05:05:33;;;;;;;;;12.60;12.60;;;;;;;;5225294;28;8789;-68
2022/04/30 05:08:23;;;;;;;;;11.60;11.60;;;;;;;;5225029;28;8812;-68
2022/04/30 05:10:55;;;;;;;;;13.00;12.00;;;;;;;;5223909;28;8786;-68
2022/04/30 05:13:26;;;;;;;;;17.80;17.80;;;;;;;;5205555;28;8788;-69
2022/04/30 05:15:58;;;;;;;;;20.60;20.60;;;;;;;;5204128;28;8788;-68
2022/04/30 05:18:29;;;;;;;;;11.20;11.20;;;;;;;;5205249;28;8796;-68
2022/04/30 05:21:00;;;;;;;;;10.50;10.50;;;;;;;;5209096;28;8832;-68
2022/04/30 05:23:34;;;;;;;;;68.40;53.60;;;;;;;;5246835;28;8802;-69
2022/04/30 05:26:06;;;;;;;;;12.80;12.80;;;;;;;;5245250;28;9036;-68
2022/04/30 05:28:37;;;;;;;;;16.60;16.60;;;;;;;;5246679;28;8897;-68
2022/04/30 05:31:08;;;;;;;;;18.00;17.00;;;;;;;;5230756;28;8813;-68
2022/04/30 05:33:39;;;;;;;;;10.00;10.00;;;;;;;;5224518;28;11146;-67
2022/04/30 05:36:09;;;;;;;;;11.75;11.75;;;;;;;;5207959;28;8916;-68
2022/04/30 05:38:40;;;;;;;;;10.00;10.00;;;;;;;;5224816;28;10742;-68
2022/04/30 05:41:11;;;;;;;;;11.50;11.00;;;;;;;;5225480;28;8829;-69
2022/04/30 05:43:42;;;;;;;;;7.00;7.00;;;;;;;;5225511;28;11430;-68
2022/04/30 05:46:13;;;;;;;;;6.40;5.80;;;;;;;;5223942;28;8816;-68
2022/04/30 05:48:44;;;;;;;;;9.00;9.00;;;;;;;;5203330;28;8816;-68
2022/04/30 05:51:15;;;;;;;;;21.25;20.25;;;;;;;;5204042;28;8835;-69
2022/04/30 05:53:46;;;;;;;;;11.80;11.20;;;;;;;;5204680;28;8977;-69
2022/04/30 05:56:17;;;;;;;;;15.20;15.20;;;;;;;;5203719;28;8792;-69
2022/04/30 05:59:06;;;;;;;;;13.00;13.00;;;;;;;;5203899;28;9483;-68
2022/04/30 06:01:37;;;;;;;;;7.20;7.20;;;;;;;;5213344;28;8813;-70
2022/04/30 06:04:28;;;;;;;;;6.60;6.60;;;;;;;;5221449;28;8830;-65
2022/04/30 06:06:59;;;;;;;;;6.60;6.60;;;;;;;;5206473;28;8849;-65
2022/04/30 06:09:30;;;;;;;;;15.80;15.80;;;;;;;;5228191;28;8775;-66
2022/04/30 06:12:02;;;;;;;;;7.75;7.75;;;;;;;;5246474;28;8775;-66
2022/04/30 06:14:32;;;;;;;;;5.40;5.40;;;;;;;;5244525;28;10991;-65
2022/04/30 06:17:04;;;;;;;;;5.20;5.20;;;;;;;;5245579;28;8803;-66
2022/04/30 06:19:53;;;;;;;;;4.40;4.40;;;;;;;;5245026;28;8775;-65
2022/04/30 06:22:24;;;;;;;;;6.00;4.00;;;;;;;;5233013;28;8814;-65
2022/04/30 06:24:55;;;;;;;;;4.00;4.00;;;;;;;;5224190;28;8827;-65
2022/04/30 06:27:26;;;;;;;;;5.20;5.20;;;;;;;;5209612;28;8808;-65
2022/04/30 06:29:56;;;;;;;;;3.00;3.00;;;;;;;;5204670;28;8826;-65
2022/04/30 06:32:27;;;;;;;;;7.00;7.00;;;;;;;;5204184;28;9557;-65
2022/04/30 06:34:59;;;;;;;;;7.20;6.80;;;;;;;;5204965;28;11509;-65
2022/04/30 06:37:48;;;;;;;;;9.60;8.60;;;;;;;;5244435;28;8791;-65
2022/04/30 06:40:20;;;;;;;;;3.00;3.00;;;;;;;;5240322;28;8928;-66
2022/04/30 06:42:51;;;;;;;;;5.00;5.00;;;;;;;;5203213;28;9525;-65
2022/04/30 06:45:22;;;;;;;;;6.25;6.25;;;;;;;;5219722;28;8797;-65
2022/04/30 06:47:53;;;;;;;;;8.50;7.75;;;;;;;;5224744;28;10176;-65
2022/04/30 06:50:24;;;;;;;;;7.40;7.40;;;;;;;;5223859;28;11541;-65
2022/04/30 06:58:43;;;;;;;;;4.40;4.40;;;;;;;;5220929;28;8768;-65
2022/04/30 07:04:01;;;;;;;;;9.00;9.00;;;;;;;;5213546;28;8924;-65
2022/04/30 07:06:33;;;;;;;;;12.00;11.00;;;;;;;;5208406;28;8780;-69
2022/04/30 07:09:06;;;;;;;;;11.00;11.00;;;;;;;;5210203;28;9553;-66
2022/04/30 07:11:38;;;;;;;;;8.60;8.60;;;;;;;;5223674;28;8814;-66
2022/04/30 07:14:09;;;;;;;;;9.80;9.80;;;;;;;;5225061;28;9002;-65
2022/04/30 07:16:42;;;;;;;;;8.00;8.00;;;;;;;;5206239;28;8827;-66
2022/04/30 07:19:14;;;;;;;;;8.40;8.40;;;;;;;;5207914;28;8831;-67
2022/04/30 07:21:45;;;;;;;;;10.80;10.80;;;;;;;;5216851;28;8815;-66
2022/04/30 07:24:17;;;;;;;;;11.20;10.80;;;;;;;;5210170;28;9003;-66
2022/04/30 07:26:48;;;;;;;;;7.75;7.75;;;;;;;;5244503;28;8954;-66
2022/04/30 07:29:19;;;;;;;;;8.40;8.40;;;;;;;;5248866;28;8797;-66
2022/04/30 07:31:50;;;;;;;;;6.00;6.00;;;;;;;;5240102;28;8844;-67
2022/04/30 07:34:22;;;;;;;;;3.40;3.40;;;;;;;;5218258;28;8797;-66
2022/04/30 07:36:54;;;;;;;;;4.00;4.00;;;;;;;;5226389;28;8852;-67
2022/04/30 07:39:24;;;;;;;;;6.60;6.60;;;;;;;;5247551;28;8815;-65
2022/04/30 07:41:56;;;;;;;;;33.20;31.80;;;;;;;;5248390;28;8799;-66
2022/04/30 07:44:30;;;;;;;;;3.60;3.60;;;;;;;;5230413;28;8809;-66
2022/04/30 07:47:19;;;;;;;;;5.00;5.00;;;;;;;;5233406;28;8811;-67
2022/04/30 07:50:09;;;;;;;;;7.20;7.20;;;;;;;;5248690;28;8756;-66
2022/04/30 07:52:40;;;;;;;;;3.40;3.40;;;;;;;;5245840;28;8826;-66
2022/04/30 07:55:30;;;;;;;;;5.00;5.00;;;;;;;;5209751;28;8885;-65
2022/04/30 07:58:02;;;;;;;;;3.80;3.80;;;;;;;;5207694;28;8804;-66
2022/04/30 08:00:36;;;;;;;;;4.00;4.00;;;;;;;;5207078;28;8828;-66
2022/04/30 08:03:07;;;;;;;;;3.00;3.00;;;;;;;;5205147;28;8793;-65
2022/04/30 08:05:38;;;;;;;;;1.67;1.67;;;;;;;;5205920;28;8827;-65
2022/04/30 08:08:11;;;;;;;;;3.00;3.00;;;;;;;;5193451;28;8901;-65
2022/04/30 08:10:42;;;;;;;;;6.00;6.00;;;;;;;;5207076;28;8792;-64
2022/04/30 08:13:16;;;;;;;;;5.50;4.50;;;;;;;;5206552;28;9546;-71
2022/04/30 08:15:47;;;;;;;;;4.20;4.20;;;;;;;;5225232;28;8790;-65
2022/04/30 08:18:19;;;;;;;;;3.00;3.00;;;;;;;;5226370;28;8839;-66
2022/04/30 08:20:50;;;;;;;;;3.00;3.00;;;;;;;;5210575;28;8825;-65
2022/04/30 08:23:23;;;;;;;;;3.00;3.00;;;;;;;;5230035;28;8802;-65
2022/04/30 08:25:54;;;;;;;;;4.00;4.00;;;;;;;;5247450;28;8814;-65
2022/04/30 08:28:24;;;;;;;;;3.00;2.00;;;;;;;;5242211;28;8792;-66
2022/04/30 08:30:57;;;;;;;;;2.33;2.33;;;;;;;;5225981;28;8966;-66
2022/04/30 08:33:28;;;;;;;;;3.00;3.00;;;;;;;;5224538;28;11496;-67
2022/04/30 08:35:59;;;;;;;;;5.50;5.50;;;;;;;;5220132;28;8780;-67
2022/04/30 08:38:30;;;;;;;;;4.33;4.33;;;;;;;;5221998;28;8829;-67
2022/04/30 08:41:01;;;;;;;;;4.00;4.00;;;;;;;;5188069;28;9716;-67
2022/04/30 08:43:32;;;;;;;;;4.00;4.00;;;;;;;;5206076;28;8917;-67
2022/04/30 08:46:04;;;;;;;;;4.00;4.00;;;;;;;;5188211;28;8997;-67
2022/04/30 08:48:35;;;;;;;;;2.60;2.60;;;;;;;;5188057;28;8777;-67
2022/04/30 08:51:06;;;;;;;;;5.00;5.00;;;;;;;;5205577;28;8827;-68
2022/04/30 08:53:37;;;;;;;;;4.33;4.33;;;;;;;;5206317;28;8800;-67
2022/04/30 08:56:08;;;;;;;;;5.75;5.75;;;;;;;;5188248;28;12314;-67
2022/04/30 08:58:39;;;;;;;;;3.67;3.67;;;;;;;;5205941;28;8772;-68
2022/04/30 09:01:10;;;;;;;;;4.00;4.00;;;;;;;;5205807;28;8844;-68
2022/04/30 09:03:41;;;;;;;;;1.33;1.33;;;;;;;;5204574;28;12179;-67
2022/04/30 09:06:17;;;;;;;;;2.33;2.33;;;;;;;;5205776;28;11604;-67
2022/04/30 09:08:49;;;;;;;;;2.50;2.50;;;;;;;;5188153;28;9617;-68
2022/04/30 09:11:26;;;;;;;;;3.00;3.00;;;;;;;;5187722;28;8832;-67
2022/04/30 09:13:58;;;;;;;;;1.50;1.50;;;;;;;;5187707;28;9527;-68
2022/04/30 09:16:48;;;;;;;;;1.00;1.00;;;;;;;;5205507;28;9499;-68
2022/04/30 09:19:19;;;;;;;;;1.25;1.25;;;;;;;;5204339;28;8943;-67
2022/04/30 09:21:50;;;;;;;;;1.33;1.33;;;;;;;;5222960;28;9004;-67
2022/04/30 09:24:21;;;;;;;;;2.00;2.00;;;;;;;;5246600;28;9591;-68
2022/04/30 09:26:52;;;;;;;;;3.33;3.33;;;;;;;;5247109;28;8917;-67
2022/04/30 09:29:41;;;;;;;;;3.25;3.00;;;;;;;;5245603;28;10167;-67
2022/04/30 09:32:17;;;;;;;;;4.25;4.25;;;;;;;;5245128;28;8879;-67
2022/04/30 09:37:52;;;;;;;;;1.50;1.50;;;;;;;;5246217;28;8897;-67
2022/04/30 09:40:24;;;;;;;;;1.75;1.75;;;;;;;;5212081;28;8965;-68
2022/04/30 09:42:55;;;;;;;;;0.50;0.50;;;;;;;;5244998;28;8775;-69
2022/04/30 09:45:30;;;;;;;;;3.25;3.25;;;;;;;;5246303;28;8767;-68
2022/04/30 09:54:00;;;;;;;;;2.25;2.25;;;;;;;;5246360;28;8771;-67
2022/04/30 09:56:51;;;;;;;;;1.50;1.50;;;;;;;;5245270;28;8905;-68
2022/04/30 09:59:23;;;;;;;;;0.00;0.00;;;;;;;;5244753;28;8791;-67
2022/04/30 10:01:53;;;;;;;;;1.25;1.25;;;;;;;;5227935;28;8827;-68
2022/04/30 10:04:24;;;;;;;;;1.67;1.67;;;;;;;;5245317;28;8802;-68
2022/04/30 10:06:58;;;;;;;;;2.00;2.00;;;;;;;;5245030;28;11588;-67
2022/04/30 10:09:32;;;;;;;;;3.25;3.25;;;;;;;;5245955;28;8779;-68
2022/04/30 10:12:11;;;;;;;;;0.50;0.50;;;;;;;;5227919;28;8787;-68
2022/04/30 10:14:45;;;;;;;;;5.25;5.25;;;;;;;;5242524;28;8802;-68
2022/04/30 10:17:17;;;;;;;;;4.50;4.50;;;;;;;;5178955;28;8839;-67
2022/04/30 10:20:01;;;;;;;;;3.25;3.25;;;;;;;;5207905;28;8798;-68
2022/04/30 10:22:33;;;;;;;;;3.00;3.00;;;;;;;;5206058;28;9529;-68
2022/04/30 10:25:06;;;;;;;;;3.00;3.00;;;;;;;;5244595;28;8779;-68
2022/04/30 10:27:38;;;;;;;;;8.50;8.50;;;;;;;;5228531;28;8925;-69
2022/04/30 10:30:23;;;;;;;;;14.80;14.80;;;;;;;;5185314;28;8847;-69
2022/04/30 10:32:59;;;;;;;;;7.75;7.75;;;;;;;;5204037;28;8804;-69
2022/04/30 10:35:40;;;;;;;;;8.25;8.00;;;;;;;;5201847;28;8846;-69
2022/04/30 10:38:21;;;;;;;;;5.00;5.00;;;;;;;;5187636;28;8819;-68
2022/04/30 10:40:52;;;;;;;;;4.75;4.75;;;;;;;;5205277;28;9562;-69
2022/04/30 10:43:26;;;;;;;;;7.00;7.00;;;;;;;;5206620;28;8788;-68
2022/04/30 10:45:57;;;;;;;;;33.80;29.00;;;;;;;;5189299;28;8791;-70
2022/04/30 10:48:28;;;;;;;;;25.40;24.40;;;;;;;;5217969;28;8824;-68
2022/04/30 10:51:04;;;;;;;;;13.00;12.50;;;;;;;;5221136;28;9574;-67
2022/04/30 10:53:38;;;;;;;;;9.50;9.50;;;;;;;;5226945;28;8794;-68
2022/04/30 10:56:09;;;;;;;;;18.80;17.00;;;;;;;;5199521;28;8932;-66
2022/04/30 10:58:44;;;;;;;;;4.50;4.50;;;;;;;;5190035;28;8804;-67
2022/04/30 11:01:16;;;;;;;;;3.50;3.50;;;;;;;;5190273;28;8950;-66
2022/04/30 11:03:51;;;;;;;;;12.60;12.40;;;;;;;;5190680;28;8796;-66
2022/04/30 11:06:41;;;;;;;;;4.75;4.75;;;;;;;;5206974;28;8817;-66
2022/04/30 11:09:12;;;;;;;;;4.75;4.75;;;;;;;;5218027;28;8798;-67
2022/04/30 11:11:47;;;;;;;;;6.00;6.00;;;;;;;;5228487;28;8805;-66
2022/04/30 11:14:19;;;;;;;;;8.00;8.00;;;;;;;;5227094;28;8934;-67
2022/04/30 11:16:50;;;;;;;;;5.75;5.75;;;;;;;;5193498;28;8853;-67
2022/04/30 11:19:23;;;;;;;;;9.25;9.25;;;;;;;;5226880;28;8788;-67
2022/04/30 11:21:55;;;;;;;;;6.25;6.25;;;;;;;;5196069;28;9547;-66
2022/04/30 11:24:26;;;;;;;;;6.00;5.00;;;;;;;;5207945;28;8833;-67
2022/04/30 11:27:03;;;;;;;;;7.00;7.00;;;;;;;;5210688;28;8828;-67
2022/04/30 11:29:38;;;;;;;;;15.40;15.40;;;;;;;;5226790;28;8836;-67
2022/04/30 11:32:09;;;;;;;;;14.40;14.40;;;;;;;;5193901;28;8786;-66
2022/04/30 11:34:40;;;;;;;;;18.75;18.00;;;;;;;;5228093;28;9898;-66
2022/04/30 11:37:42;;;;;;;;;12.00;12.00;;;;;;;;5224493;28;8804;-68
2022/04/30 11:40:13;;;;;;;;;12.75;11.00;;;;;;;;5210544;28;8816;-67
2022/04/30 11:42:53;;;;;;;;;10.50;10.50;;;;;;;;5224020;28;8796;-66
2022/04/30 11:45:25;;;;;;;;;14.60;14.20;;;;;;;;5221487;28;8797;-67
2022/04/30 11:47:57;;;;;;;;;9.75;9.75;;;;;;;;5188899;28;8813;-69
2022/04/30 11:50:28;;;;;;;;;8.80;8.80;;;;;;;;5206263;28;8787;-67
2022/04/30 11:52:59;;;;;;;;;5.75;5.75;;;;;;;;5207424;28;8784;-66
2022/04/30 11:55:30;;;;;;;;;3.60;3.60;;;;;;;;5172896;28;8817;-66
2022/04/30 11:58:04;;;;;;;;;4.80;4.80;;;;;;;;5206893;28;8784;-67
2022/04/30 12:00:35;;;;;;;;;6.50;6.25;;;;;;;;5205212;28;8796;-67
2022/04/30 12:03:06;;;;;;;;;6.75;6.50;;;;;;;;5205855;28;8788;-67
2022/04/30 12:05:59;;;;;;;;;5.00;5.00;;;;;;;;5212392;28;8801;-67
2022/04/30 12:08:48;;;;;;;;;2.00;2.00;;;;;;;;5226231;28;8790;-67
2022/04/30 12:11:19;;;;;;;;;2.00;2.00;;;;;;;;5227189;28;8785;-67
2022/04/30 12:13:57;;;;;;;;;4.00;4.00;;;;;;;;5225985;28;8912;-67
2022/04/30 12:16:36;;;;;;;;;4.50;4.50;;;;;;;;5209532;28;8806;-67
2022/04/30 12:25:20;;;;;;;;;5.00;5.00;;;;;;;;5225920;28;8964;-66
2022/04/30 12:27:55;;;;;;;;;5.00;5.00;;;;;;;;5208844;28;8828;-67
2022/04/30 12:30:28;;;;;;;;;7.60;7.60;;;;;;;;5206144;28;8784;-67
2022/04/30 12:33:04;;;;;;;;;6.40;6.40;;;;;;;;5188696;28;8772;-67
2022/04/30 12:35:55;;;;;;;;;10.00;9.00;;;;;;;;5204897;28;8800;-67
2022/04/30 12:38:29;;;;;;;;;10.00;9.40;;;;;;;;5214762;28;8822;-66
2022/04/30 12:41:01;;;;;;;;;7.20;7.20;;;;;;;;5192559;28;8845;-67
2022/04/30 12:43:36;;;;;;;;;2.80;2.80;;;;;;;;5209115;28;9524;-67
2022/04/30 12:46:25;;;;;;;;;4.20;4.20;;;;;;;;5225747;28;8800;-67
2022/04/30 12:48:58;;;;;;;;;13.20;13.20;;;;;;;;5226312;28;8789;-67
2022/04/30 12:51:29;;;;;;;;;16.50;15.75;;;;;;;;5226959;28;8805;-67
2022/04/30 12:54:00;;;;;;;;;15.50;15.50;;;;;;;;5226465;28;11447;-67
2022/04/30 12:56:32;;;;;;;;;49.40;42.20;;;;;;;;5225575;28;9542;-67
2022/04/30 12:59:03;;;;;;;;;16.40;16.40;;;;;;;;5208432;28;8794;-67
2022/04/30 13:01:39;;;;;;;;;13.80;13.00;;;;;;;;5207916;28;8817;-67
2022/04/30 13:04:12;;;;;;;;;9.20;9.20;;;;;;;;5226636;28;8810;-66
2022/04/30 13:06:43;;;;;;;;;14.80;14.80;;;;;;;;5226203;28;8785;-66
2022/04/30 13:14:52;;;;;;;;;14.20;14.20;;;;;;;;5209160;28;8840;-67
2022/04/30 13:17:23;;;;;;;;;23.25;22.50;;;;;;;;5225813;28;8847;-67
2022/04/30 13:19:54;;;;;;;;;12.20;12.20;;;;;;;;5224526;28;8820;-67
2022/04/30 13:22:25;;;;;;;;;10.40;9.80;;;;;;;;5222061;28;8903;-67
2022/04/30 13:24:56;;;;;;;;;8.50;8.50;;;;;;;;5246336;28;8763;-67
2022/04/30 13:27:27;;;;;;;;;2.60;2.60;;;;;;;;5246517;28;8814;-67
2022/04/30 13:29:58;;;;;;;;;11.75;11.75;;;;;;;;5237319;28;8798;-67
2022/04/30 13:32:28;;;;;;;;;17.00;17.00;;;;;;;;5224333;28;8808;-67
2022/04/30 13:34:59;;;;;;;;;10.75;10.75;;;;;;;;5208919;28;8831;-67
2022/04/30 13:37:30;;;;;;;;;7.25;7.25;;;;;;;;5207155;28;11450;-67
2022/04/30 13:40:01;;;;;;;;;3.25;2.75;;;;;;;;5224083;28;11516;-67
2022/04/30 13:42:50;;;;;;;;;5.20;5.20;;;;;;;;5203916;28;8885;-67
2022/04/30 13:45:22;;;;;;;;;10.75;10.75;;;;;;;;5220983;28;8804;-66
2022/04/30 13:48:11;;;;;;;;;16.40;16.40;;;;;;;;5204821;28;8911;-67
2022/04/30 13:50:42;;;;;;;;;15.50;15.50;;;;;;;;5204721;28;8812;-67
2022/04/30 13:53:13;;;;;;;;;14.80;14.80;;;;;;;;5187136;28;8838;-67
2022/04/30 13:55:46;;;;;;;;;11.00;11.00;;;;;;;;5204646;28;8911;-67
2022/04/30 13:58:17;;;;;;;;;14.00;14.00;;;;;;;;5187059;28;8897;-67
2022/04/30 14:00:48;;;;;;;;;12.50;12.50;;;;;;;;5204762;28;8820;-67
2022/04/30 14:03:19;;;;;;;;;10.75;10.75;;;;;;;;5203890;28;9488;-69
2022/04/30 14:05:49;;;;;;;;;9.00;9.00;;;;;;;;5204917;28;11486;-67
2022/04/30 14:08:20;;;;;;;;;11.00;11.00;;;;;;;;5205069;28;8804;-67
2022/04/30 14:10:51;;;;;;;;;6.50;6.50;;;;;;;;5219108;28;11469;-67
2022/04/30 14:16:12;;;;;;;;;13.80;13.80;;;;;;;;5224416;28;8800;-67
2022/04/30 14:18:42;;;;;;;;;12.25;12.25;;;;;;;;5240086;28;8833;-67
2022/04/30 14:21:15;;;;;;;;;7.00;6.50;;;;;;;;5243436;28;8849;-67
2022/04/30 14:23:47;;;;;;;;;5.40;5.40;;;;;;;;5247501;28;11442;-67
2022/04/30 14:26:18;;;;;;;;;8.00;8.00;;;;;;;;5213886;28;8853;-67
2022/04/30 14:28:50;;;;;;;;;4.00;3.75;;;;;;;;5236842;28;8810;-67
2022/04/30 14:31:21;;;;;;;;;6.20;6.20;;;;;;;;5227969;28;8825;-67
2022/04/30 14:33:52;;;;;;;;;7.00;7.00;;;;;;;;5209485;28;8797;-67
2022/04/30 14:36:23;;;;;;;;;22.50;21.75;;;;;;;;5227625;28;8804;-69
2022/04/30 14:38:55;;;;;;;;;7.50;6.75;;;;;;;;5216908;28;8832;-67
2022/04/30 14:41:44;;;;;;;;;4.00;4.00;;;;;;;;5211021;28;8820;-68
2022/04/30 14:44:16;;;;;;;;;6.75;3.25;;;;;;;;5217975;28;8808;-66
2022/04/30 14:46:48;;;;;;;;;10.40;10.20;;;;;;;;5209354;28;8806;-67
2022/04/30 14:49:19;;;;;;;;;26.80;26.20;;;;;;;;5193061;28;8801;-67
2022/04/30 14:51:49;;;;;;;;;8.75;8.75;;;;;;;;5209938;28;8810;-66
2022/04/30 14:54:20;;;;;;;;;10.75;10.75;;;;;;;;5228255;28;8786;-66
2022/04/30 14:57:09;;;;;;;;;7.60;7.60;;;;;;;;5228182;28;10118;-66
2022/04/30 14:59:40;;;;;;;;;6.00;6.00;;;;;;;;5228023;28;8781;-66
2022/04/30 15:02:29;;;;;;;;;5.20;5.20;;;;;;;;5228386;28;8810;-71
2022/04/30 15:05:00;;;;;;;;;4.00;4.00;;;;;;;;5228217;28;9566;-66
2022/04/30 15:07:31;;;;;;;;;2.75;2.75;;;;;;;;5227084;28;8817;-65
2022/04/30 15:10:20;;;;;;;;;2.80;2.80;;;;;;;;5225261;28;8843;-66
2022/04/30 15:12:51;;;;;;;;;6.00;6.00;;;;;;;;5211024;28;8829;-66
2022/04/30 15:15:22;;;;;;;;;7.40;7.40;;;;;;;;5228639;28;8815;-66
2022/04/30 15:17:53;;;;;;;;;5.50;5.50;;;;;;;;5242518;28;8790;-66
2022/04/30 15:20:25;;;;;;;;;3.00;3.00;;;;;;;;5228473;28;8801;-67
2022/04/30 15:22:56;;;;;;;;;3.00;3.00;;;;;;;;5210114;28;8813;-66
2022/04/30 15:25:27;;;;;;;;;9.20;9.20;;;;;;;;5227183;28;9532;-67
2022/04/30 15:27:58;;;;;;;;;5.25;5.25;;;;;;;;5210301;28;8804;-67
2022/04/30 15:30:29;;;;;;;;;2.80;2.80;;;;;;;;5210337;28;10090;-67
2022/04/30 15:33:01;;;;;;;;;0.50;0.50;;;;;;;;5224361;28;8809;-69
2022/04/30 15:35:33;;;;;;;;;6.40;6.40;;;;;;;;5207751;28;8867;-68
2022/04/30 15:38:04;;;;;;;;;28.40;27.60;;;;;;;;5207903;28;8879;-68
2022/04/30 15:40:35;;;;;;;;;38.80;35.40;;;;;;;;5187683;28;8858;-68
2022/04/30 15:43:06;;;;;;;;;22.50;22.50;;;;;;;;5209533;28;8801;-69
2022/04/30 15:45:37;;;;;;;;;14.75;14.75;;;;;;;;5221626;28;8856;-68
2022/04/30 15:51:22;;;;;;;;;24.60;24.60;;;;;;;;5232259;28;9531;-68
2022/04/30 15:53:57;;;;;;;;;35.00;34.20;;;;;;;;5188973;28;8802;-68
2022/04/30 15:56:32;;;;;;;;;32.00;30.80;;;;;;;;5219789;28;8924;-69
2022/04/30 15:59:03;;;;;;;;;18.20;18.00;;;;;;;;5193608;28;8790;-69
2022/04/30 16:01:34;;;;;;;;;20.00;19.50;;;;;;;;5227446;28;8894;-68
2022/04/30 16:04:05;;;;;;;;;36.25;36.00;;;;;;;;5226391;28;8865;-68
2022/04/30 16:06:36;;;;;;;;;37.25;31.00;;;;;;;;5227095;28;8785;-68
2022/04/30 16:09:07;;;;;;;;;20.25;20.25;;;;;;;;5227134;28;11518;-68
2022/04/30 16:11:38;;;;;;;;;20.60;18.80;;;;;;;;5226463;28;8824;-68
2022/04/30 16:14:09;;;;;;;;;27.25;27.25;;;;;;;;5225102;28;8802;-68
2022/04/30 16:16:39;;;;;;;;;19.75;19.75;;;;;;;;5227326;28;8782;-73
2022/04/30 16:19:10;;;;;;;;;23.20;22.80;;;;;;;;5226091;28;8786;-68
2022/04/30 16:21:42;;;;;;;;;27.80;27.00;;;;;;;;5234050;28;8846;-68
2022/04/30 16:24:31;;;;;;;;;24.80;24.80;;;;;;;;5248041;28;8816;-68